»·PEaware :: N229AT KFMN-KABQ

N229AT :: KFMN-KABQ

FLIGHT INFORMATION

Flight Status: Arrived
Operator: Privately registered:
United States
More flights under this callsign
Pilot: Kris M. (26219)
Aircraft: PILATUS PC-12 EAGLE
(PC12)
More flights by this aircraft type
Origin: KFMN Four Corners Regl
United States
Destination: KABQ Albuquerque Intl Sunport
United States
More flights between these airports :: More routes between these airports
Route: +RSK V187 ABQ
File this flight plan on PilotEdge
Remarks:
Altitude:
(Current/Filed)
11,000ft
Speed:
(Current/Filed)
270kts
Departed: 02-Dec-19 06:15 PM
Arrived: 02-Dec-19 06:59 PM
Distance/Time
Traveled:
129nm/0:44
Distance/Time
To Go:
Arrived

Flight Plot

Page will automatically refresh every two minutes.

Flight plan parsing failed; only flown route is shown


Map Options




Map Legend


Flown Route
Filed Route
Departure Airport
Arrival Airport
Navaid (VOR, NDB)
Fix

Horizontal Profiles

Position Reports

Time Latitude Longitude Heading Altitude Ground
Speed
02-Dec-19 17:48 36.739874 -108.225142 89 5507ft 0kts
02-Dec-19 17:49 36.739874 -108.225142 89 5507ft 0kts
02-Dec-19 17:50 36.739874 -108.225142 89 5507ft 0kts
02-Dec-19 17:51 36.739874 -108.225142 89 5507ft 0kts
02-Dec-19 17:52 36.739874 -108.225142 89 5507ft 0kts
02-Dec-19 17:53 36.739874 -108.225142 89 5507ft 0kts
02-Dec-19 17:54 36.739874 -108.225142 89 5507ft 0kts
02-Dec-19 17:55 36.739874 -108.225142 89 5507ft 0kts
02-Dec-19 17:56 36.739874 -108.225142 89 5507ft 0kts
02-Dec-19 17:57 36.739874 -108.225142 89 5507ft 0kts
02-Dec-19 17:58 36.739874 -108.225142 89 5507ft 0kts
02-Dec-19 17:59 36.739874 -108.225142 89 5507ft 0kts
02-Dec-19 18:00 36.739874 -108.225142 89 5507ft 0kts
02-Dec-19 18:01 36.739874 -108.225142 89 5507ft 0kts
02-Dec-19 18:02 36.739874 -108.225142 89 5507ft 0kts
02-Dec-19 18:03 36.739874 -108.225142 89 5507ft 0kts
02-Dec-19 18:08 36.739874 -108.225142 0 5507ft 0kts
02-Dec-19 18:09 36.739974 -108.224145 85 5507ft 19kts
02-Dec-19 18:10 36.740151 -108.223341 320 5507ft 0kts
02-Dec-19 18:11 36.740151 -108.223341 320 5507ft 0kts
02-Dec-19 18:12 36.740812 -108.218485 90 5507ft 0kts
02-Dec-19 18:13 36.741622 -108.217494 264 5507ft 0kts
02-Dec-19 18:14 36.741132 -108.240265 269 5927ft 122kts
02-Dec-19 18:15 36.746503 -108.208426 94 8347ft 214kts
02-Dec-19 18:16 36.763339 -108.180958 42 10762ft 212kts
02-Dec-19 18:18 36.759206 -108.125901 125 11220ft 290kts
02-Dec-19 18:19 36.700355 -108.061927 148 10752ft 278kts
02-Dec-19 18:20 36.634628 -108.011350 148 10752ft 260kts
02-Dec-19 18:21 36.570982 -107.962427 148 10753ft 257kts
02-Dec-19 18:22 36.513361 -107.918221 148 10753ft 256kts
02-Dec-19 18:23 36.451828 -107.871103 148 10753ft 256kts
02-Dec-19 18:24 36.390232 -107.824029 148 10753ft 256kts
02-Dec-19 18:25 36.328907 -107.777360 148 10753ft 256kts
02-Dec-19 18:26 36.264828 -107.728572 147 10754ft 279kts
02-Dec-19 18:27 36.197159 -107.677156 148 10753ft 285kts
02-Dec-19 18:28 36.129041 -107.625506 148 10753ft 286kts
02-Dec-19 18:29 36.060574 -107.573695 148 10753ft 286kts
02-Dec-19 18:30 35.992318 -107.522149 148 10753ft 286kts
02-Dec-19 18:31 35.923820 -107.470527 148 10753ft 286kts
02-Dec-19 18:32 35.855195 -107.418919 148 10753ft 286kts
02-Dec-19 18:33 35.786744 -107.367544 148 10753ft 286kts
02-Dec-19 18:34 35.718108 -107.316134 148 10753ft 286kts
02-Dec-19 18:35 35.649610 -107.264935 148 10753ft 286kts
02-Dec-19 18:36 35.581178 -107.213884 148 10753ft 286kts
02-Dec-19 18:36 35.524247 -107.171495 148 10753ft 286kts
02-Dec-19 18:38 35.444363 -107.112135 148 10753ft 286kts
02-Dec-19 18:39 35.375795 -107.061289 148 10753ft 286kts
02-Dec-19 18:39 35.318612 -107.018837 148 10753ft 286kts
02-Dec-19 18:40 35.253231 -106.971126 148 10751ft 278kts
02-Dec-19 18:42 35.179862 -106.917521 148 10752ft 254kts
02-Dec-19 18:43 35.119389 -106.874153 160 10744ft 251kts
02-Dec-19 18:43 35.070124 -106.911130 229 9108ft 289kts
02-Dec-19 18:44 35.026268 -106.973897 229 8746ft 200kts
02-Dec-19 18:45 34.993804 -107.020552 229 8749ft 165kts
02-Dec-19 18:46 34.965177 -107.061988 229 8759ft 170kts
02-Dec-19 18:47 34.933265 -107.108043 225 8751ft 173kts
02-Dec-19 18:48 34.940899 -107.109528 80 8760ft 156kts
02-Dec-19 18:49 34.947768 -107.057130 81 8753ft 157kts
02-Dec-19 18:51 34.953337 -106.995267 84 8752ft 157kts
02-Dec-19 18:51 34.955526 -106.951034 87 8752ft 157kts
02-Dec-19 18:52 34.959330 -106.898123 76 8754ft 157kts
02-Dec-19 18:53 34.967614 -106.845777 78 8732ft 159kts
02-Dec-19 18:54 34.979385 -106.784872 80 8116ft 215kts
02-Dec-19 18:55 34.987234 -106.712370 80 7716ft 170kts
02-Dec-19 18:56 34.997250 -106.669852 66 6808ft 117kts
02-Dec-19 18:57 35.015727 -106.638518 44 5534ft 111kts
02-Dec-19 18:58 35.030237 -106.622393 320 5358ft 12kts
02-Dec-19 18:59 35.030322 -106.622476 321 5358ft 2kts
02-Dec-19 19:00 35.034629 -106.618760 358 5358ft 20kts
02-Dec-19 19:10 35.035289 -106.618976 244 5358ft 0kts

Navigation Log

Ident Type
Flight plan parsing failed, navigation log unavailable